sensor_id;sensor_type;location;lat;lon;timestamp;P1;durP1;ratioP1;P2;durP2;ratioP2
70929;SDS011;58588;48.102;19.682;2024-02-21T00:00:45;7.63;;;3.30;;
70929;SDS011;58588;48.102;19.682;2024-02-21T00:03:48;8.15;;;3.22;;
70929;SDS011;58588;48.102;19.682;2024-02-21T00:06:50;8.13;;;2.90;;
70929;SDS011;58588;48.102;19.682;2024-02-21T00:09:52;7.13;;;2.55;;
70929;SDS011;58588;48.102;19.682;2024-02-21T00:12:54;7.97;;;2.80;;
70929;SDS011;58588;48.102;19.682;2024-02-21T00:15:56;7.57;;;2.93;;
70929;SDS011;58588;48.102;19.682;2024-02-21T00:18:59;6.85;;;2.47;;
70929;SDS011;58588;48.102;19.682;2024-02-21T00:22:01;5.93;;;1.88;;
70929;SDS011;58588;48.102;19.682;2024-02-21T00:25:03;6.20;;;1.80;;
70929;SDS011;58588;48.102;19.682;2024-02-21T00:28:06;6.73;;;2.27;;
70929;SDS011;58588;48.102;19.682;2024-02-21T00:31:07;4.87;;;1.50;;
70929;SDS011;58588;48.102;19.682;2024-02-21T00:34:11;5.38;;;1.40;;
70929;SDS011;58588;48.102;19.682;2024-02-21T00:37:13;6.35;;;2.10;;
70929;SDS011;58588;48.102;19.682;2024-02-21T00:40:15;6.88;;;2.30;;
70929;SDS011;58588;48.102;19.682;2024-02-21T00:43:20;7.73;;;1.90;;
70929;SDS011;58588;48.102;19.682;2024-02-21T00:46:23;6.30;;;2.10;;
70929;SDS011;58588;48.102;19.682;2024-02-21T00:49:27;5.72;;;1.90;;
70929;SDS011;58588;48.102;19.682;2024-02-21T00:52:29;5.47;;;1.70;;
70929;SDS011;58588;48.102;19.682;2024-02-21T00:55:30;6.13;;;1.90;;
70929;SDS011;58588;48.102;19.682;2024-02-21T00:58:32;6.27;;;2.00;;
70929;SDS011;58588;48.102;19.682;2024-02-21T01:01:34;6.17;;;1.97;;
70929;SDS011;58588;48.102;19.682;2024-02-21T01:04:37;5.72;;;1.85;;
70929;SDS011;58588;48.102;19.682;2024-02-21T01:07:39;6.18;;;2.00;;
70929;SDS011;58588;48.102;19.682;2024-02-21T01:10:41;5.50;;;1.50;;
70929;SDS011;58588;48.102;19.682;2024-02-21T01:13:43;5.40;;;1.60;;
70929;SDS011;58588;48.102;19.682;2024-02-21T01:16:45;6.97;;;1.90;;
70929;SDS011;58588;48.102;19.682;2024-02-21T01:19:48;5.72;;;1.55;;
70929;SDS011;58588;48.102;19.682;2024-02-21T01:22:50;5.55;;;1.65;;
70929;SDS011;58588;48.102;19.682;2024-02-21T01:25:52;6.32;;;1.52;;
70929;SDS011;58588;48.102;19.682;2024-02-21T01:28:55;5.60;;;1.63;;
70929;SDS011;58588;48.102;19.682;2024-02-21T01:31:57;6.10;;;1.60;;
70929;SDS011;58588;48.102;19.682;2024-02-21T01:35:00;6.25;;;1.50;;
70929;SDS011;58588;48.102;19.682;2024-02-21T01:38:02;5.63;;;1.55;;
70929;SDS011;58588;48.102;19.682;2024-02-21T01:41:04;5.40;;;1.50;;
70929;SDS011;58588;48.102;19.682;2024-02-21T01:44:06;6.03;;;1.60;;
70929;SDS011;58588;48.102;19.682;2024-02-21T01:47:09;6.03;;;1.87;;
70929;SDS011;58588;48.102;19.682;2024-02-21T01:50:15;6.47;;;1.67;;
70929;SDS011;58588;48.102;19.682;2024-02-21T01:53:18;5.47;;;1.65;;
70929;SDS011;58588;48.102;19.682;2024-02-21T01:56:22;5.50;;;1.58;;
70929;SDS011;58588;48.102;19.682;2024-02-21T01:59:25;6.60;;;1.50;;
70929;SDS011;58588;48.102;19.682;2024-02-21T02:02:27;6.33;;;1.27;;
70929;SDS011;58588;48.102;19.682;2024-02-21T02:05:31;6.25;;;1.70;;
70929;SDS011;58588;48.102;19.682;2024-02-21T02:08:34;7.32;;;1.52;;
70929;SDS011;58588;48.102;19.682;2024-02-21T02:11:36;5.32;;;1.45;;
70929;SDS011;58588;48.102;19.682;2024-02-21T02:14:38;5.50;;;1.60;;
70929;SDS011;58588;48.102;19.682;2024-02-21T02:17:40;5.83;;;1.37;;
70929;SDS011;58588;48.102;19.682;2024-02-21T02:20:43;14.07;;;4.15;;
70929;SDS011;58588;48.102;19.682;2024-02-21T02:23:48;9.25;;;2.78;;
70929;SDS011;58588;48.102;19.682;2024-02-21T02:26:50;7.57;;;1.92;;
70929;SDS011;58588;48.102;19.682;2024-02-21T02:29:52;7.63;;;1.87;;
70929;SDS011;58588;48.102;19.682;2024-02-21T02:32:54;6.83;;;2.00;;
70929;SDS011;58588;48.102;19.682;2024-02-21T02:35:56;6.20;;;1.83;;
70929;SDS011;58588;48.102;19.682;2024-02-21T02:39:00;6.22;;;1.85;;
70929;SDS011;58588;48.102;19.682;2024-02-21T02:42:02;6.25;;;1.77;;
70929;SDS011;58588;48.102;19.682;2024-02-21T02:45:05;5.87;;;1.83;;
70929;SDS011;58588;48.102;19.682;2024-02-21T02:48:07;6.13;;;1.43;;
70929;SDS011;58588;48.102;19.682;2024-02-21T02:51:09;6.63;;;1.70;;
70929;SDS011;58588;48.102;19.682;2024-02-21T02:54:13;6.22;;;1.92;;
70929;SDS011;58588;48.102;19.682;2024-02-21T02:57:15;6.97;;;1.80;;
70929;SDS011;58588;48.102;19.682;2024-02-21T03:00:17;7.27;;;2.10;;
70929;SDS011;58588;48.102;19.682;2024-02-21T03:03:19;5.77;;;1.90;;
70929;SDS011;58588;48.102;19.682;2024-02-21T03:06:21;5.85;;;1.60;;
70929;SDS011;58588;48.102;19.682;2024-02-21T03:09:25;6.85;;;1.92;;
70929;SDS011;58588;48.102;19.682;2024-02-21T03:12:27;5.85;;;1.90;;
70929;SDS011;58588;48.102;19.682;2024-02-21T03:15:29;5.97;;;1.77;;
70929;SDS011;58588;48.102;19.682;2024-02-21T03:18:31;7.50;;;1.80;;
70929;SDS011;58588;48.102;19.682;2024-02-21T03:21:33;5.65;;;1.67;;
70929;SDS011;58588;48.102;19.682;2024-02-21T03:24:36;8.35;;;2.03;;
70929;SDS011;58588;48.102;19.682;2024-02-21T03:27:38;6.90;;;2.10;;
70929;SDS011;58588;48.102;19.682;2024-02-21T03:30:40;8.10;;;2.00;;
70929;SDS011;58588;48.102;19.682;2024-02-21T03:33:42;7.13;;;2.20;;
70929;SDS011;58588;48.102;19.682;2024-02-21T03:36:44;7.28;;;2.22;;
70929;SDS011;58588;48.102;19.682;2024-02-21T03:39:47;9.00;;;2.13;;
70929;SDS011;58588;48.102;19.682;2024-02-21T03:42:49;6.78;;;2.00;;
70929;SDS011;58588;48.102;19.682;2024-02-21T03:45:51;7.50;;;1.77;;
70929;SDS011;58588;48.102;19.682;2024-02-21T03:48:53;6.83;;;2.83;;
70929;SDS011;58588;48.102;19.682;2024-02-21T03:51:55;7.90;;;2.53;;
70929;SDS011;58588;48.102;19.682;2024-02-21T03:54:59;7.25;;;1.98;;
70929;SDS011;58588;48.102;19.682;2024-02-21T03:58:01;7.45;;;2.10;;
70929;SDS011;58588;48.102;19.682;2024-02-21T04:01:03;5.80;;;2.03;;
70929;SDS011;58588;48.102;19.682;2024-02-21T04:04:05;8.18;;;2.08;;
70929;SDS011;58588;48.102;19.682;2024-02-21T04:07:08;7.05;;;2.22;;
70929;SDS011;58588;48.102;19.682;2024-02-21T04:10:11;7.07;;;2.00;;
70929;SDS011;58588;48.102;19.682;2024-02-21T04:13:13;6.57;;;1.85;;
70929;SDS011;58588;48.102;19.682;2024-02-21T04:16:16;5.90;;;2.07;;
70929;SDS011;58588;48.102;19.682;2024-02-21T04:19:18;7.53;;;2.33;;
70929;SDS011;58588;48.102;19.682;2024-02-21T04:22:20;6.72;;;2.03;;
70929;SDS011;58588;48.102;19.682;2024-02-21T04:25:23;6.50;;;2.00;;
70929;SDS011;58588;48.102;19.682;2024-02-21T04:28:26;8.00;;;2.00;;
70929;SDS011;58588;48.102;19.682;2024-02-21T04:31:28;7.47;;;2.07;;
70929;SDS011;58588;48.102;19.682;2024-02-21T04:34:30;7.13;;;2.35;;
70929;SDS011;58588;48.102;19.682;2024-02-21T04:37:32;7.60;;;2.25;;
70929;SDS011;58588;48.102;19.682;2024-02-21T04:40:35;6.72;;;2.25;;
70929;SDS011;58588;48.102;19.682;2024-02-21T04:43:37;6.97;;;2.20;;
70929;SDS011;58588;48.102;19.682;2024-02-21T04:46:41;6.13;;;1.77;;
70929;SDS011;58588;48.102;19.682;2024-02-21T04:49:44;7.28;;;2.22;;
70929;SDS011;58588;48.102;19.682;2024-02-21T04:52:46;8.15;;;2.38;;
70929;SDS011;58588;48.102;19.682;2024-02-21T04:55:49;7.32;;;2.17;;
70929;SDS011;58588;48.102;19.682;2024-02-21T04:58:51;10.63;;;3.35;;
70929;SDS011;58588;48.102;19.682;2024-02-21T05:01:53;13.90;;;4.37;;
70929;SDS011;58588;48.102;19.682;2024-02-21T05:04:55;9.68;;;3.45;;
70929;SDS011;58588;48.102;19.682;2024-02-21T05:07:56;7.10;;;2.83;;
70929;SDS011;58588;48.102;19.682;2024-02-21T05:11:00;8.40;;;2.28;;
70929;SDS011;58588;48.102;19.682;2024-02-21T05:14:02;8.50;;;2.70;;
70929;SDS011;58588;48.102;19.682;2024-02-21T05:17:04;9.47;;;2.80;;
70929;SDS011;58588;48.102;19.682;2024-02-21T05:20:06;9.30;;;2.80;;
70929;SDS011;58588;48.102;19.682;2024-02-21T05:23:09;8.25;;;3.05;;
70929;SDS011;58588;48.102;19.682;2024-02-21T05:26:12;7.05;;;2.53;;
70929;SDS011;58588;48.102;19.682;2024-02-21T05:29:21;10.80;;;3.90;;
70929;SDS011;58588;48.102;19.682;2024-02-21T05:32:25;13.33;;;4.23;;
70929;SDS011;58588;48.102;19.682;2024-02-21T05:35:27;12.52;;;4.70;;
70929;SDS011;58588;48.102;19.682;2024-02-21T05:38:29;12.43;;;4.40;;
70929;SDS011;58588;48.102;19.682;2024-02-21T05:41:32;13.02;;;4.20;;
70929;SDS011;58588;48.102;19.682;2024-02-21T05:44:34;9.18;;;3.47;;
70929;SDS011;58588;48.102;19.682;2024-02-21T05:47:36;14.00;;;4.33;;
70929;SDS011;58588;48.102;19.682;2024-02-21T05:50:38;10.70;;;3.45;;
70929;SDS011;58588;48.102;19.682;2024-02-21T05:53:40;11.77;;;4.10;;
70929;SDS011;58588;48.102;19.682;2024-02-21T05:56:45;15.00;;;5.15;;
70929;SDS011;58588;48.102;19.682;2024-02-21T05:59:47;14.80;;;5.82;;
70929;SDS011;58588;48.102;19.682;2024-02-21T06:02:49;13.10;;;5.40;;
70929;SDS011;58588;48.102;19.682;2024-02-21T06:05:51;16.08;;;5.90;;
70929;SDS011;58588;48.102;19.682;2024-02-21T06:08:53;25.67;;;9.18;;
70929;SDS011;58588;48.102;19.682;2024-02-21T06:11:57;20.15;;;7.10;;
70929;SDS011;58588;48.102;19.682;2024-02-21T06:14:59;13.80;;;5.80;;
70929;SDS011;58588;48.102;19.682;2024-02-21T06:18:01;30.47;;;13.57;;
70929;SDS011;58588;48.102;19.682;2024-02-21T06:21:03;27.58;;;13.30;;
70929;SDS011;58588;48.102;19.682;2024-02-21T06:24:05;15.82;;;6.50;;
70929;SDS011;58588;48.102;19.682;2024-02-21T06:27:08;13.02;;;4.70;;
70929;SDS011;58588;48.102;19.682;2024-02-21T06:30:11;30.13;;;11.25;;
70929;SDS011;58588;48.102;19.682;2024-02-21T06:33:14;31.77;;;12.13;;
70929;SDS011;58588;48.102;19.682;2024-02-21T06:36:16;16.50;;;5.15;;
70929;SDS011;58588;48.102;19.682;2024-02-21T06:39:18;11.30;;;4.32;;
70929;SDS011;58588;48.102;19.682;2024-02-21T06:42:21;14.98;;;4.45;;
70929;SDS011;58588;48.102;19.682;2024-02-21T06:45:25;17.95;;;7.25;;
70929;SDS011;58588;48.102;19.682;2024-02-21T06:48:27;15.40;;;6.40;;
70929;SDS011;58588;48.102;19.682;2024-02-21T06:51:29;18.60;;;7.05;;
70929;SDS011;58588;48.102;19.682;2024-02-21T06:54:32;18.17;;;7.57;;
70929;SDS011;58588;48.102;19.682;2024-02-21T06:57:35;18.88;;;8.18;;
70929;SDS011;58588;48.102;19.682;2024-02-21T07:00:37;20.02;;;8.80;;
70929;SDS011;58588;48.102;19.682;2024-02-21T07:03:40;31.37;;;11.90;;
70929;SDS011;58588;48.102;19.682;2024-02-21T07:06:43;28.48;;;10.73;;
70929;SDS011;58588;48.102;19.682;2024-02-21T07:09:45;28.00;;;10.45;;
70929;SDS011;58588;48.102;19.682;2024-02-21T07:12:50;24.08;;;9.55;;
70929;SDS011;58588;48.102;19.682;2024-02-21T07:15:52;22.88;;;8.50;;
70929;SDS011;58588;48.102;19.682;2024-02-21T07:18:55;21.43;;;8.53;;
70929;SDS011;58588;48.102;19.682;2024-02-21T07:21:56;26.58;;;10.45;;
70929;SDS011;58588;48.102;19.682;2024-02-21T07:24:58;25.85;;;11.05;;
70929;SDS011;58588;48.102;19.682;2024-02-21T07:28:02;20.33;;;9.48;;
70929;SDS011;58588;48.102;19.682;2024-02-21T07:31:04;23.58;;;11.77;;
70929;SDS011;58588;48.102;19.682;2024-02-21T07:34:06;16.80;;;8.20;;
70929;SDS011;58588;48.102;19.682;2024-02-21T07:37:08;13.82;;;6.90;;
70929;SDS011;58588;48.102;19.682;2024-02-21T07:40:12;21.73;;;9.65;;
70929;SDS011;58588;48.102;19.682;2024-02-21T07:43:15;18.92;;;8.75;;
70929;SDS011;58588;48.102;19.682;2024-02-21T07:46:17;19.30;;;8.13;;
70929;SDS011;58588;48.102;19.682;2024-02-21T07:49:19;21.33;;;7.63;;
70929;SDS011;58588;48.102;19.682;2024-02-21T07:52:21;16.25;;;6.93;;
70929;SDS011;58588;48.102;19.682;2024-02-21T07:55:24;18.88;;;8.50;;
70929;SDS011;58588;48.102;19.682;2024-02-21T07:58:28;15.68;;;6.90;;
70929;SDS011;58588;48.102;19.682;2024-02-21T08:01:30;14.10;;;4.55;;
70929;SDS011;58588;48.102;19.682;2024-02-21T08:04:31;12.97;;;5.03;;
70929;SDS011;58588;48.102;19.682;2024-02-21T08:07:33;11.85;;;4.55;;
70929;SDS011;58588;48.102;19.682;2024-02-21T08:10:35;13.45;;;4.90;;
70929;SDS011;58588;48.102;19.682;2024-02-21T08:13:38;8.73;;;3.30;;
70929;SDS011;58588;48.102;19.682;2024-02-21T08:16:40;7.65;;;3.00;;
70929;SDS011;58588;48.102;19.682;2024-02-21T08:19:43;7.73;;;2.53;;
70929;SDS011;58588;48.102;19.682;2024-02-21T08:22:45;6.40;;;1.80;;
70929;SDS011;58588;48.102;19.682;2024-02-21T08:25:47;8.02;;;2.30;;
70929;SDS011;58588;48.102;19.682;2024-02-21T08:28:51;8.43;;;2.35;;
70929;SDS011;58588;48.102;19.682;2024-02-21T08:31:53;8.35;;;2.40;;
70929;SDS011;58588;48.102;19.682;2024-02-21T08:34:55;9.30;;;3.33;;
70929;SDS011;58588;48.102;19.682;2024-02-21T08:37:57;5.97;;;1.43;;
70929;SDS011;58588;48.102;19.682;2024-02-21T08:40:59;6.38;;;1.33;;
70929;SDS011;58588;48.102;19.682;2024-02-21T08:44:02;5.72;;;1.20;;
70929;SDS011;58588;48.102;19.682;2024-02-21T08:47:04;4.22;;;0.88;;
70929;SDS011;58588;48.102;19.682;2024-02-21T08:50:08;3.97;;;0.80;;
70929;SDS011;58588;48.102;19.682;2024-02-21T08:53:11;4.80;;;1.00;;
70929;SDS011;58588;48.102;19.682;2024-02-21T08:56:14;5.90;;;1.38;;
70929;SDS011;58588;48.102;19.682;2024-02-21T08:59:17;6.40;;;1.38;;
70929;SDS011;58588;48.102;19.682;2024-02-21T09:02:19;6.03;;;1.00;;
70929;SDS011;58588;48.102;19.682;2024-02-21T09:05:21;6.17;;;1.10;;
70929;SDS011;58588;48.102;19.682;2024-02-21T09:08:23;4.97;;;1.10;;
70929;SDS011;58588;48.102;19.682;2024-02-21T09:11:25;4.60;;;0.93;;
70929;SDS011;58588;48.102;19.682;2024-02-21T09:14:29;4.60;;;0.90;;
70929;SDS011;58588;48.102;19.682;2024-02-21T09:17:31;4.45;;;0.88;;
70929;SDS011;58588;48.102;19.682;2024-02-21T09:20:33;4.97;;;0.80;;
70929;SDS011;58588;48.102;19.682;2024-02-21T09:23:35;4.13;;;0.60;;
70929;SDS011;58588;48.102;19.682;2024-02-21T09:26:36;5.78;;;1.00;;
70929;SDS011;58588;48.102;19.682;2024-02-21T09:29:40;3.92;;;0.70;;
70929;SDS011;58588;48.102;19.682;2024-02-21T09:32:42;4.30;;;0.65;;
70929;SDS011;58588;48.102;19.682;2024-02-21T09:35:44;4.00;;;0.60;;
70929;SDS011;58588;48.102;19.682;2024-02-21T09:38:47;4.87;;;0.80;;
70929;SDS011;58588;48.102;19.682;2024-02-21T09:41:50;5.07;;;0.80;;
70929;SDS011;58588;48.102;19.682;2024-02-21T09:44:59;3.13;;;0.65;;
70929;SDS011;58588;48.102;19.682;2024-02-21T09:48:06;4.28;;;0.60;;
70929;SDS011;58588;48.102;19.682;2024-02-21T09:51:31;3.70;;;0.53;;
70929;SDS011;58588;48.102;19.682;2024-02-21T09:54:35;5.13;;;1.03;;
70929;SDS011;58588;48.102;19.682;2024-02-21T09:57:38;4.38;;;0.60;;
70929;SDS011;58588;48.102;19.682;2024-02-21T10:00:41;6.55;;;0.75;;
70929;SDS011;58588;48.102;19.682;2024-02-21T10:03:48;3.75;;;0.60;;
70929;SDS011;58588;48.102;19.682;2024-02-21T10:06:50;4.70;;;0.80;;
70929;SDS011;58588;48.102;19.682;2024-02-21T10:09:59;4.37;;;0.80;;
70929;SDS011;58588;48.102;19.682;2024-02-21T10:13:02;3.92;;;0.70;;
70929;SDS011;58588;48.102;19.682;2024-02-21T10:16:06;3.70;;;0.60;;
70929;SDS011;58588;48.102;19.682;2024-02-21T10:19:15;4.93;;;0.68;;
70929;SDS011;58588;48.102;19.682;2024-02-21T10:22:18;4.07;;;0.80;;
70929;SDS011;58588;48.102;19.682;2024-02-21T10:25:21;5.07;;;0.70;;
70929;SDS011;58588;48.102;19.682;2024-02-21T10:28:22;4.00;;;0.60;;
70929;SDS011;58588;48.102;19.682;2024-02-21T10:31:27;5.47;;;0.77;;
70929;SDS011;58588;48.102;19.682;2024-02-21T10:34:29;3.35;;;0.60;;
70929;SDS011;58588;48.102;19.682;2024-02-21T10:37:31;3.57;;;0.50;;
70929;SDS011;58588;48.102;19.682;2024-02-21T10:40:33;4.00;;;0.60;;
70929;SDS011;58588;48.102;19.682;2024-02-21T10:43:37;4.50;;;0.68;;
70929;SDS011;58588;48.102;19.682;2024-02-21T10:46:43;5.78;;;0.88;;
70929;SDS011;58588;48.102;19.682;2024-02-21T10:49:45;3.17;;;0.60;;
70929;SDS011;58588;48.102;19.682;2024-02-21T10:52:51;3.17;;;0.77;;
70929;SDS011;58588;48.102;19.682;2024-02-21T10:56:06;3.57;;;0.50;;
70929;SDS011;58588;48.102;19.682;2024-02-21T10:59:17;4.78;;;0.68;;
70929;SDS011;58588;48.102;19.682;2024-02-21T11:02:22;6.22;;;1.10;;
70929;SDS011;58588;48.102;19.682;2024-02-21T11:05:24;5.28;;;0.80;;
70929;SDS011;58588;48.102;19.682;2024-02-21T11:08:28;5.37;;;0.80;;
70929;SDS011;58588;48.102;19.682;2024-02-21T11:11:32;6.50;;;0.90;;
70929;SDS011;58588;48.102;19.682;2024-02-21T11:14:37;6.65;;;0.70;;
70929;SDS011;58588;48.102;19.682;2024-02-21T11:17:43;7.50;;;1.00;;
70929;SDS011;58588;48.102;19.682;2024-02-21T11:20:55;6.00;;;0.60;;
70929;SDS011;58588;48.102;19.682;2024-02-21T11:23:57;6.90;;;0.80;;
70929;SDS011;58588;48.102;19.682;2024-02-21T11:27:07;3.47;;;0.50;;
70929;SDS011;58588;48.102;19.682;2024-02-21T11:30:11;7.25;;;0.90;;
70929;SDS011;58588;48.102;19.682;2024-02-21T11:33:15;4.20;;;0.52;;
70929;SDS011;58588;48.102;19.682;2024-02-21T11:36:23;3.63;;;0.50;;
70929;SDS011;58588;48.102;19.682;2024-02-21T11:39:26;3.77;;;0.50;;
70929;SDS011;58588;48.102;19.682;2024-02-21T11:42:28;3.97;;;0.80;;
70929;SDS011;58588;48.102;19.682;2024-02-21T11:45:30;3.25;;;0.52;;
70929;SDS011;58588;48.102;19.682;2024-02-21T11:48:34;4.32;;;0.65;;
70929;SDS011;58588;48.102;19.682;2024-02-21T11:51:36;5.90;;;0.85;;
70929;SDS011;58588;48.102;19.682;2024-02-21T11:54:38;6.73;;;1.00;;
70929;SDS011;58588;48.102;19.682;2024-02-21T11:57:40;6.70;;;1.00;;
70929;SDS011;58588;48.102;19.682;2024-02-21T12:00:43;4.55;;;0.70;;
70929;SDS011;58588;48.102;19.682;2024-02-21T12:03:46;4.97;;;0.65;;
70929;SDS011;58588;48.102;19.682;2024-02-21T12:06:49;5.10;;;0.93;;
70929;SDS011;58588;48.102;19.682;2024-02-21T12:09:51;4.90;;;0.90;;
70929;SDS011;58588;48.102;19.682;2024-02-21T12:12:53;4.60;;;0.90;;
70929;SDS011;58588;48.102;19.682;2024-02-21T12:15:58;4.72;;;0.70;;
70929;SDS011;58588;48.102;19.682;2024-02-21T12:19:02;4.93;;;0.68;;
70929;SDS011;58588;48.102;19.682;2024-02-21T12:22:05;6.38;;;0.82;;
70929;SDS011;58588;48.102;19.682;2024-02-21T12:25:15;5.50;;;1.00;;
70929;SDS011;58588;48.102;19.682;2024-02-21T12:28:19;6.97;;;0.80;;
70929;SDS011;58588;48.102;19.682;2024-02-21T12:31:22;4.00;;;0.50;;
70929;SDS011;58588;48.102;19.682;2024-02-21T12:34:25;4.32;;;0.70;;
70929;SDS011;58588;48.102;19.682;2024-02-21T12:37:27;6.20;;;0.80;;
70929;SDS011;58588;48.102;19.682;2024-02-21T12:40:29;4.30;;;0.67;;
70929;SDS011;58588;48.102;19.682;2024-02-21T12:43:32;5.00;;;1.10;;
70929;SDS011;58588;48.102;19.682;2024-02-21T12:46:35;6.00;;;1.10;;
70929;SDS011;58588;48.102;19.682;2024-02-21T12:49:38;6.40;;;0.90;;
70929;SDS011;58588;48.102;19.682;2024-02-21T12:52:40;5.72;;;0.90;;
70929;SDS011;58588;48.102;19.682;2024-02-21T12:55:42;5.13;;;0.90;;
70929;SDS011;58588;48.102;19.682;2024-02-21T12:58:44;4.93;;;0.80;;
70929;SDS011;58588;48.102;19.682;2024-02-21T13:01:46;6.00;;;0.82;;
70929;SDS011;58588;48.102;19.682;2024-02-21T13:04:49;6.10;;;0.82;;
70929;SDS011;58588;48.102;19.682;2024-02-21T13:07:51;4.07;;;0.52;;
70929;SDS011;58588;48.102;19.682;2024-02-21T13:10:54;5.27;;;0.70;;
70929;SDS011;58588;48.102;19.682;2024-02-21T13:13:56;5.97;;;1.00;;
70929;SDS011;58588;48.102;19.682;2024-02-21T13:16:58;5.68;;;0.90;;
70929;SDS011;58588;48.102;19.682;2024-02-21T13:20:01;4.75;;;0.85;;
70929;SDS011;58588;48.102;19.682;2024-02-21T13:23:04;4.82;;;0.90;;
70929;SDS011;58588;48.102;19.682;2024-02-21T13:26:05;4.90;;;1.00;;
70929;SDS011;58588;48.102;19.682;2024-02-21T13:29:07;5.77;;;0.90;;
70929;SDS011;58588;48.102;19.682;2024-02-21T13:32:09;4.78;;;1.08;;
70929;SDS011;58588;48.102;19.682;2024-02-21T13:35:13;6.97;;;1.15;;
70929;SDS011;58588;48.102;19.682;2024-02-21T13:38:15;6.00;;;1.00;;
70929;SDS011;58588;48.102;19.682;2024-02-21T13:41:18;4.87;;;1.00;;
70929;SDS011;58588;48.102;19.682;2024-02-21T13:44:22;8.50;;;0.90;;
70929;SDS011;58588;48.102;19.682;2024-02-21T13:47:24;5.68;;;1.10;;
70929;SDS011;58588;48.102;19.682;2024-02-21T13:50:29;8.18;;;1.35;;
70929;SDS011;58588;48.102;19.682;2024-02-21T13:53:31;5.53;;;0.80;;
70929;SDS011;58588;48.102;19.682;2024-02-21T13:56:34;5.90;;;0.70;;
70929;SDS011;58588;48.102;19.682;2024-02-21T13:59:36;4.70;;;0.80;;
70929;SDS011;58588;48.102;19.682;2024-02-21T14:02:39;5.68;;;0.90;;
70929;SDS011;58588;48.102;19.682;2024-02-21T14:05:43;4.90;;;0.70;;
70929;SDS011;58588;48.102;19.682;2024-02-21T14:08:44;8.68;;;1.00;;
70929;SDS011;58588;48.102;19.682;2024-02-21T14:11:46;5.93;;;0.93;;
70929;SDS011;58588;48.102;19.682;2024-02-21T14:14:48;5.10;;;0.90;;
70929;SDS011;58588;48.102;19.682;2024-02-21T14:17:50;5.75;;;1.00;;
70929;SDS011;58588;48.102;19.682;2024-02-21T14:20:53;6.38;;;1.15;;
70929;SDS011;58588;48.102;19.682;2024-02-21T14:23:55;4.63;;;0.85;;
70929;SDS011;58588;48.102;19.682;2024-02-21T14:26:58;5.77;;;0.80;;
70929;SDS011;58588;48.102;19.682;2024-02-21T14:30:01;6.47;;;1.10;;
70929;SDS011;58588;48.102;19.682;2024-02-21T14:33:03;5.18;;;1.00;;
70929;SDS011;58588;48.102;19.682;2024-02-21T14:36:06;4.88;;;0.77;;
70929;SDS011;58588;48.102;19.682;2024-02-21T14:39:08;6.05;;;0.90;;
70929;SDS011;58588;48.102;19.682;2024-02-21T14:42:10;7.83;;;1.20;;
70929;SDS011;58588;48.102;19.682;2024-02-21T14:45:12;6.13;;;0.93;;
70929;SDS011;58588;48.102;19.682;2024-02-21T14:48:14;7.45;;;0.98;;
70929;SDS011;58588;48.102;19.682;2024-02-21T14:51:18;6.57;;;0.88;;
70929;SDS011;58588;48.102;19.682;2024-02-21T14:54:20;7.32;;;1.25;;
70929;SDS011;58588;48.102;19.682;2024-02-21T14:57:23;6.17;;;1.20;;
70929;SDS011;58588;48.102;19.682;2024-02-21T15:00:26;8.83;;;1.27;;
70929;SDS011;58588;48.102;19.682;2024-02-21T15:03:30;7.95;;;1.02;;
70929;SDS011;58588;48.102;19.682;2024-02-21T15:06:33;6.25;;;1.02;;
70929;SDS011;58588;48.102;19.682;2024-02-21T15:09:37;7.68;;;1.50;;
70929;SDS011;58588;48.102;19.682;2024-02-21T15:12:39;6.50;;;1.00;;
70929;SDS011;58588;48.102;19.682;2024-02-21T15:15:41;8.30;;;1.40;;
70929;SDS011;58588;48.102;19.682;2024-02-21T15:18:43;8.30;;;1.60;;
70929;SDS011;58588;48.102;19.682;2024-02-21T15:21:46;7.65;;;1.40;;
70929;SDS011;58588;48.102;19.682;2024-02-21T15:24:49;6.10;;;1.27;;
70929;SDS011;58588;48.102;19.682;2024-02-21T15:27:52;8.87;;;2.67;;
70929;SDS011;58588;48.102;19.682;2024-02-21T15:30:54;5.57;;;1.20;;
70929;SDS011;58588;48.102;19.682;2024-02-21T15:33:56;7.55;;;1.30;;
70929;SDS011;58588;48.102;19.682;2024-02-21T15:37:00;6.60;;;1.40;;
70929;SDS011;58588;48.102;19.682;2024-02-21T15:40:09;8.73;;;1.73;;
70929;SDS011;58588;48.102;19.682;2024-02-21T15:43:12;9.43;;;1.80;;
70929;SDS011;58588;48.102;19.682;2024-02-21T15:46:14;7.23;;;1.57;;
70929;SDS011;58588;48.102;19.682;2024-02-21T15:49:16;8.57;;;1.60;;
70929;SDS011;58588;48.102;19.682;2024-02-21T15:52:19;9.02;;;1.65;;
70929;SDS011;58588;48.102;19.682;2024-02-21T15:55:21;7.32;;;1.60;;
70929;SDS011;58588;48.102;19.682;2024-02-21T15:58:23;6.27;;;1.80;;
70929;SDS011;58588;48.102;19.682;2024-02-21T16:01:25;7.90;;;1.60;;
70929;SDS011;58588;48.102;19.682;2024-02-21T16:04:28;8.20;;;1.80;;
70929;SDS011;58588;48.102;19.682;2024-02-21T16:07:32;9.77;;;2.00;;
70929;SDS011;58588;48.102;19.682;2024-02-21T16:10:34;8.43;;;1.83;;
70929;SDS011;58588;48.102;19.682;2024-02-21T16:13:37;8.43;;;2.27;;
70929;SDS011;58588;48.102;19.682;2024-02-21T16:16:42;12.93;;;2.33;;
70929;SDS011;58588;48.102;19.682;2024-02-21T16:19:44;7.15;;;1.77;;
70929;SDS011;58588;48.102;19.682;2024-02-21T16:22:50;8.40;;;1.92;;
70929;SDS011;58588;48.102;19.682;2024-02-21T16:25:52;8.88;;;1.90;;
70929;SDS011;58588;48.102;19.682;2024-02-21T16:28:55;9.03;;;2.13;;
70929;SDS011;58588;48.102;19.682;2024-02-21T16:31:58;8.77;;;1.87;;
70929;SDS011;58588;48.102;19.682;2024-02-21T16:35:01;8.77;;;2.30;;
70929;SDS011;58588;48.102;19.682;2024-02-21T16:38:05;9.55;;;2.30;;
70929;SDS011;58588;48.102;19.682;2024-02-21T16:41:09;7.45;;;1.95;;
70929;SDS011;58588;48.102;19.682;2024-02-21T16:44:11;12.50;;;3.97;;
70929;SDS011;58588;48.102;19.682;2024-02-21T16:47:13;8.83;;;3.30;;
70929;SDS011;58588;48.102;19.682;2024-02-21T16:50:15;9.60;;;3.28;;
70929;SDS011;58588;48.102;19.682;2024-02-21T16:53:20;12.48;;;3.53;;
70929;SDS011;58588;48.102;19.682;2024-02-21T16:56:24;9.43;;;2.90;;
70929;SDS011;58588;48.102;19.682;2024-02-21T16:59:26;20.90;;;12.43;;
70929;SDS011;58588;48.102;19.682;2024-02-21T17:02:28;18.67;;;9.37;;
70929;SDS011;58588;48.102;19.682;2024-02-21T17:05:30;28.73;;;14.70;;
70929;SDS011;58588;48.102;19.682;2024-02-21T17:08:34;30.27;;;16.42;;
70929;SDS011;58588;48.102;19.682;2024-02-21T17:11:36;27.40;;;13.82;;
70929;SDS011;58588;48.102;19.682;2024-02-21T17:14:38;48.78;;;24.55;;
70929;SDS011;58588;48.102;19.682;2024-02-21T17:17:40;45.47;;;21.10;;
70929;SDS011;58588;48.102;19.682;2024-02-21T17:20:42;40.75;;;20.73;;
70929;SDS011;58588;48.102;19.682;2024-02-21T17:23:46;38.88;;;18.10;;
70929;SDS011;58588;48.102;19.682;2024-02-21T17:26:48;49.72;;;27.23;;
70929;SDS011;58588;48.102;19.682;2024-02-21T17:29:50;38.28;;;19.50;;
70929;SDS011;58588;48.102;19.682;2024-02-21T17:32:52;64.37;;;30.70;;
70929;SDS011;58588;48.102;19.682;2024-02-21T17:35:54;56.35;;;31.98;;
70929;SDS011;58588;48.102;19.682;2024-02-21T17:38:57;48.10;;;24.40;;
70929;SDS011;58588;48.102;19.682;2024-02-21T17:42:00;38.42;;;19.33;;
70929;SDS011;58588;48.102;19.682;2024-02-21T17:45:04;31.60;;;14.98;;
70929;SDS011;58588;48.102;19.682;2024-02-21T17:48:07;28.10;;;12.43;;
70929;SDS011;58588;48.102;19.682;2024-02-21T17:51:09;23.88;;;11.20;;
70929;SDS011;58588;48.102;19.682;2024-02-21T17:54:13;24.67;;;10.93;;
70929;SDS011;58588;48.102;19.682;2024-02-21T17:57:16;28.98;;;10.70;;
70929;SDS011;58588;48.102;19.682;2024-02-21T18:00:18;27.88;;;14.20;;